MOL Experience — 3ELI7 — position and weather

sailwx.info

Track history (hours):
 
Tides and Currents Weather Stations Pressure Air Temp Water Temp Dewpoint Dewpoint Depression Visibility Wind Speed Wind Dir Waves Ship Positions

MOL Experience

Last reported at 2017-Sep-25 09:25 UTC. Time now 2017-Sep-25 09:46 UTC.
Position N 53°23' E 004°33'.

Length 293 m; draft 12.2 m.

Type: Cargo ship. MMSI: 372955000.

Date/timePositionNaut miles runAvg speedWind from/ knotsBaromVisibWave heightAir tempDewpointWater temp
2017-Sep-25 09:25N 53°23' E 004°33'511.8
2017-Sep-25 09:00N 53°27' E 004°36'611.6
2017-Sep-25 08:31N 53°30' E 004°45'611.7
2017-Sep-25 08:01N 53°32' E 004°54'611.8
2017-Sep-25 07:31N 53°35' E 005°03'812.5
2017-Sep-25 06:53N 53°37' E 005°15'8513.1
2017-Sep-25 00:21N 54°01' E 007°35'911.8
2017-Sep-24 23:35N 54°02' E 007°50'112.0
2017-Sep-24 23:30N 54°02' E 007°51'611.9
2017-Sep-24 23:00N 54°01' E 008°01'611.6
2017-Sep-24 22:30N 54°01' E 008°11'611.9
2017-Sep-24 22:00N 53°60' E 008°21'815.5
2017-Sep-24 21:30N 53°58' E 008°34'815.1
2017-Sep-24 21:00N 53°53' E 008°43'713.6
2017-Sep-24 20:31N 53°51' E 008°54'815.9
2017-Sep-24 20:01N 53°53' E 009°07'713.6
2017-Sep-24 19:31N 53°52' E 009°18'816.7
2017-Sep-24 19:00N 53°44' E 009°26'713.2
2017-Sep-24 18:30N 53°39' E 009°31'612.8
2017-Sep-24 18:00N 53°34' E 009°39'5 9.8
2017-Sep-24 17:30N 53°33' E 009°47'4 8.5
2017-Sep-24 17:00N 53°33' E 009°54'3 5.2
2017-Sep-24 16:30N 53°30' E 009°56'0 0.0
2017-Sep-24 16:00N 53°30' E 009°56'0 0.0
2017-Sep-24 15:30N 53°30' E 009°56'0 0.0
2017-Sep-24 15:00N 53°30' E 009°56'0 0.0
2017-Sep-24 14:30N 53°30' E 009°56'0 0.0
2017-Sep-24 14:00N 53°30' E 009°56'0 0.0
2017-Sep-24 13:30N 53°30' E 009°56'0 0.0
2017-Sep-24 12:57N 53°30' E 009°56'0 0.0
2017-Sep-24 12:27N 53°30' E 009°56'0 0.0
2017-Sep-24 12:00N 53°30' E 009°56'0 0.0
2017-Sep-24 11:30N 53°30' E 009°56'0 0.0
2017-Sep-24 11:00N 53°30' E 009°56'0 0.0
2017-Sep-24 10:30N 53°30' E 009°56'0 0.0
2017-Sep-24 10:00N 53°30' E 009°56'0 0.0
2017-Sep-24 09:30N 53°30' E 009°56'0 0.0
2017-Sep-24 09:00N 53°30' E 009°56'0 0.0
2017-Sep-24 08:30N 53°30' E 009°56'0 0.0
2017-Sep-24 08:00N 53°30' E 009°56'0 0.0
2017-Sep-24 07:30N 53°30' E 009°56'0 0.0
2017-Sep-24 06:57N 53°30' E 009°56'0 0.0
2017-Sep-24 06:30N 53°30' E 009°56'0 0.0
2017-Sep-24 06:00N 53°30' E 009°56'0 0.0
2017-Sep-24 05:27N 53°30' E 009°56'0 0.0
2017-Sep-24 05:00N 53°30' E 009°56'0 0.0
2017-Sep-24 04:30N 53°30' E 009°56'0 0.0
2017-Sep-24 04:00N 53°30' E 009°56'0 0.0
2017-Sep-24 03:30N 53°30' E 009°56'0 0.0
2017-Sep-24 03:00N 53°30' E 009°56'0 0.0
2017-Sep-24 02:30N 53°30' E 009°56'0 0.0
2017-Sep-24 02:00N 53°30' E 009°56'0 0.0
2017-Sep-24 01:30N 53°30' E 009°56'0 0.0
2017-Sep-24 00:57N 53°30' E 009°56'0 0.0
2017-Sep-24 00:30N 53°30' E 009°56'0 0.0
2017-Sep-24 00:00N 53°30' E 009°56'0 0.0
2017-Sep-23 23:30N 53°30' E 009°56'0 0.0
2017-Sep-23 23:00N 53°30' E 009°56'0 0.4
2017-Sep-23 22:30N 53°30' E 009°56'3 5.2
2017-Sep-23 22:00N 53°33' E 009°55'4 8.6
2017-Sep-23 21:30N 53°33' E 009°48'510.6
2017-Sep-23 21:00N 53°34' E 009°39'611.1
2017-Sep-23 20:31N 53°38' E 009°32'5 9.4
2017-Sep-23 20:01N 53°42' E 009°30'238 5.7
2017-Sep-22 01:58N 51°56' E 003°37'0 0.0
2017-Sep-22 01:28N 51°56' E 003°37'0 0.0
2017-Sep-22 00:58N 51°56' E 003°37'0 0.4
2017-Sep-22 00:25N 51°56' E 003°37'0 0.2
2017-Sep-21 23:58N 51°56' E 003°37'0 0.1
2017-Sep-21 23:25N 51°56' E 003°37'0 0.0
2017-Sep-21 22:58N 51°56' E 003°37'0 0.0
2017-Sep-21 22:28N 51°56' E 003°37'0 0.0
2017-Sep-21 21:58N 51°56' E 003°37'0 0.0
2017-Sep-21 21:28N 51°56' E 003°37'0 0.0
2017-Sep-21 20:58N 51°56' E 003°37'0 0.0
2017-Sep-21 20:28N 51°56' E 003°37'0 0.2
2017-Sep-21 19:58N 51°56' E 003°37'0 0.3
2017-Sep-21 19:28N 51°56' E 003°37'0 0.1
2017-Sep-21 18:58N 51°56' E 003°37'0 0.1
2017-Sep-21 18:28N 51°56' E 003°37'0 0.1
2017-Sep-21 17:58N 51°56' E 003°37'0 0.0
2017-Sep-21 17:28N 51°56' E 003°37'0 0.0
2017-Sep-21 16:58N 51°56' E 003°37'0 0.1
2017-Sep-21 16:19N 51°56' E 003°37'0 1.4
2017-Sep-21 16:00N 51°56' E 003°37'3614.5
2017-Sep-21 13:30N 51°46' E 002°40'1116.9
2017-Sep-21 12:51N 51°38' E 002°29'616.9
2017-Sep-21 12:30N 51°34' E 002°22'816.4
2017-Sep-21 12:00N 51°28' E 002°13'816.0
2017-Sep-21 11:31N 51°21' E 002°07'815.3
2017-Sep-21 11:00N 51°13' E 002°03'815.7
2017-Sep-21 10:30N 51°10' E 001°52'714.1
2017-Sep-21 10:00N 51°05' E 001°44'611.7
2017-Sep-21 09:30N 51°01' E 001°38'510.8
2017-Sep-21 09:01N 50°57' E 001°32'510.0
2017-Sep-21 08:31N 50°53' E 001°27'510.0
2017-Sep-21 07:58N 50°48' E 001°24'610.5
2017-Sep-21 07:25N 50°43' E 001°20'911.1
2017-Sep-21 06:35N 50°36' E 001°09'211.3
2017-Sep-21 06:26N 50°35' E 001°07'611.4
2017-Sep-21 05:53N 50°31' E 000°59'411.2
2017-Sep-21 05:30N 50°30' E 000°53'611.2
2017-Sep-21 04:58N 50°28' E 000°44'511.1
2017-Sep-21 04:29N 50°26' E 000°36'511.1
2017-Sep-21 04:00N 50°24' E 000°28'511.1
2017-Sep-21 03:30N 50°23' E 000°20'611.1
2017-Sep-21 03:00N 50°21' E 000°12'611.2
2017-Sep-21 02:31N 50°20' E 000°03'611.4
2017-Sep-21 02:01N 50°20' W 000°06'611.5
2017-Sep-21 01:30N 50°21' W 000°15'611.7
2017-Sep-21 01:01N 50°23' W 000°23'611.8
2017-Sep-21 00:29N 50°27' W 000°31'612.5
2017-Sep-21 00:00N 50°30' W 000°38'612.2
2017-Sep-20 23:31N 50°35' W 000°45'612.4
2017-Sep-20 23:01N 50°39' W 000°53'5 9.7
2017-Sep-20 22:31N 50°42' W 000°58'714.3
2017-Sep-20 22:00N 50°46' W 001°08'713.9
2017-Sep-20 21:30N 50°47' W 001°19'4 7.2
2017-Sep-20 21:00N 50°51' W 001°20'3 6.8
2017-Sep-20 20:30N 50°53' W 001°24'2 4.3
2017-Sep-20 20:01N 50°54' W 001°26'1 0.2
2017-Sep-20 16:22N 50°54' W 001°27'0 0.0
2017-Sep-20 13:49N 50°54' W 001°27'0 0.0
2017-Sep-20 13:01N 50°54' W 001°27'0 0.1
2017-Sep-20 12:55N 50°54' W 001°27'0 0.0
2017-Sep-20 12:28N 50°54' W 001°27'0 0.0
2017-Sep-20 11:31N 50°54' W 001°27'0 0.1
2017-Sep-20 11:28N 50°54' W 001°27'0 0.0
2017-Sep-20 10:58N 50°54' W 001°27'0 0.0
2017-Sep-20 10:22N 50°54' W 001°27'0 0.0
2017-Sep-20 07:46N 50°54' W 001°27'0 0.0
2017-Sep-20 07:19N 50°54' W 001°27'0 0.0
2017-Sep-20 06:52N 50°54' W 001°27'0 0.0
2017-Sep-20 04:40N 50°54' W 001°27'0 0.1
2017-Sep-20 04:24N 50°54' W 001°27'0 0.8
2017-Sep-20 03:58N 50°54' W 001°27'2 3.5
2017-Sep-20 03:30N 50°54' W 001°25'4 7.5
2017-Sep-20 03:01N 50°51' W 001°20'3 6.9
2017-Sep-20 02:31N 50°48' W 001°18'4 8.8
2017-Sep-20 02:01N 50°46' W 001°12'815.4
2017-Sep-20 01:30N 50°43' W 001°01'5 9.9
2017-Sep-20 01:00N 50°39' W 000°57'3 6.3
2017-Sep-20 00:30N 50°36' W 000°58'3 6.0
2017-Sep-20 00:00N 50°33' W 000°58'612.6
2017-Sep-19 23:30N 50°27' W 000°58'1013.4
2017-Sep-19 22:44N 50°16' W 000°58'313.9
2017-Sep-19 22:30N 50°13' W 000°58'1513.5
2017-Sep-19 21:26N 50°06' W 001°18'715.1
2017-Sep-19 20:58N 50°04' W 001°29'715.6
2017-Sep-19 20:30N 50°02' W 001°40'816.3
2017-Sep-19 20:00N 50°01' W 001°52'816.5
2017-Sep-19 19:30N 49°59' W 002°05'916.6
2017-Sep-19 18:58N 49°57' W 002°18'816.1
2017-Sep-19 18:29N 49°55' W 002°30'916.1
2017-Sep-19 17:55N 49°52' W 002°43'716.1
2017-Sep-19 17:30N 49°50' W 002°53'815.8
2017-Sep-19 17:00N 49°48' W 003°05'816.3
2017-Sep-19 16:30N 49°45' W 003°17'816.2
2017-Sep-19 16:00N 49°44' W 003°29'816.7
2017-Sep-19 15:30N 49°42' W 003°42'816.6
2017-Sep-19 15:00N 49°40' W 003°54'1116.4
2017-Sep-19 14:20N 49°37' W 004°11'616.1
2017-Sep-19 14:00N 49°36' W 004°19'10712.7
2017-Sep-19 05:36N 49°26' W 007°03'213.6
2017-Sep-19 05:27N 49°27' W 007°06'613.5
2017-Sep-19 05:01N 49°27' W 007°15'713.7
2017-Sep-19 04:31N 49°28' W 007°26'8513.3
2017-Sep-18 22:04N 49°36' W 009°37'  
Track history (hours):
 
Tides and Currents Weather Stations Pressure Air Temp Water Temp Dewpoint Dewpoint Depression Visibility Wind Speed Wind Dir Waves Ship Positions

MOL Experience

Last reported at 2017-Sep-25 09:25 UTC. Time now 2017-Sep-25 09:46 UTC.
Position N 53°23' E 004°33'.

Length 293 m; draft 12.2 m.

Type: Cargo ship. MMSI: 372955000.

Date/timePositionNaut miles runAvg speedWind from/ knotsBaromVisibWave heightAir tempDewpointWater temp
2017-Sep-25 09:25N 53°23' E 004°33'511.8
2017-Sep-25 09:00N 53°27' E 004°36'611.6
2017-Sep-25 08:31N 53°30' E 004°45'611.7
2017-Sep-25 08:01N 53°32' E 004°54'611.8
2017-Sep-25 07:31N 53°35' E 005°03'812.5
2017-Sep-25 06:53N 53°37' E 005°15'8513.1
2017-Sep-25 00:21N 54°01' E 007°35'911.8
2017-Sep-24 23:35N 54°02' E 007°50'112.0
2017-Sep-24 23:30N 54°02' E 007°51'611.9
2017-Sep-24 23:00N 54°01' E 008°01'611.6
2017-Sep-24 22:30N 54°01' E 008°11'611.9
2017-Sep-24 22:00N 53°60' E 008°21'815.5
2017-Sep-24 21:30N 53°58' E 008°34'815.1
2017-Sep-24 21:00N 53°53' E 008°43'713.6
2017-Sep-24 20:31N 53°51' E 008°54'815.9
2017-Sep-24 20:01N 53°53' E 009°07'713.6
2017-Sep-24 19:31N 53°52' E 009°18'816.7
2017-Sep-24 19:00N 53°44' E 009°26'713.2
2017-Sep-24 18:30N 53°39' E 009°31'612.8
2017-Sep-24 18:00N 53°34' E 009°39'5 9.8
2017-Sep-24 17:30N 53°33' E 009°47'4 8.5
2017-Sep-24 17:00N 53°33' E 009°54'3 5.2
2017-Sep-24 16:30N 53°30' E 009°56'0 0.0
2017-Sep-24 16:00N 53°30' E 009°56'0 0.0
2017-Sep-24 15:30N 53°30' E 009°56'0 0.0
2017-Sep-24 15:00N 53°30' E 009°56'0 0.0
2017-Sep-24 14:30N 53°30' E 009°56'0 0.0
2017-Sep-24 14:00N 53°30' E 009°56'0 0.0
2017-Sep-24 13:30N 53°30' E 009°56'0 0.0
2017-Sep-24 12:57N 53°30' E 009°56'0 0.0
2017-Sep-24 12:27N 53°30' E 009°56'0 0.0
2017-Sep-24 12:00N 53°30' E 009°56'0 0.0
2017-Sep-24 11:30N 53°30' E 009°56'0 0.0
2017-Sep-24 11:00N 53°30' E 009°56'0 0.0
2017-Sep-24 10:30N 53°30' E 009°56'0 0.0
2017-Sep-24 10:00N 53°30' E 009°56'0 0.0
2017-Sep-24 09:30N 53°30' E 009°56'0 0.0
2017-Sep-24 09:00N 53°30' E 009°56'0 0.0
2017-Sep-24 08:30N 53°30' E 009°56'0 0.0
2017-Sep-24 08:00N 53°30' E 009°56'0 0.0
2017-Sep-24 07:30N 53°30' E 009°56'0 0.0
2017-Sep-24 06:57N 53°30' E 009°56'0 0.0
2017-Sep-24 06:30N 53°30' E 009°56'0 0.0
2017-Sep-24 06:00N 53°30' E 009°56'0 0.0
2017-Sep-24 05:27N 53°30' E 009°56'0 0.0
2017-Sep-24 05:00N 53°30' E 009°56'0 0.0
2017-Sep-24 04:30N 53°30' E 009°56'0 0.0
2017-Sep-24 04:00N 53°30' E 009°56'0 0.0
2017-Sep-24 03:30N 53°30' E 009°56'0 0.0
2017-Sep-24 03:00N 53°30' E 009°56'0 0.0
2017-Sep-24 02:30N 53°30' E 009°56'0 0.0
2017-Sep-24 02:00N 53°30' E 009°56'0 0.0
2017-Sep-24 01:30N 53°30' E 009°56'0 0.0
2017-Sep-24 00:57N 53°30' E 009°56'0 0.0
2017-Sep-24 00:30N 53°30' E 009°56'0 0.0
2017-Sep-24 00:00N 53°30' E 009°56'0 0.0
2017-Sep-23 23:30N 53°30' E 009°56'0 0.0
2017-Sep-23 23:00N 53°30' E 009°56'0 0.4
2017-Sep-23 22:30N 53°30' E 009°56'3 5.2
2017-Sep-23 22:00N 53°33' E 009°55'4 8.6
2017-Sep-23 21:30N 53°33' E 009°48'510.6
2017-Sep-23 21:00N 53°34' E 009°39'611.1
2017-Sep-23 20:31N 53°38' E 009°32'5 9.4
2017-Sep-23 20:01N 53°42' E 009°30'238 5.7
2017-Sep-22 01:58N 51°56' E 003°37'0 0.0
2017-Sep-22 01:28N 51°56' E 003°37'0 0.0
2017-Sep-22 00:58N 51°56' E 003°37'0 0.4
2017-Sep-22 00:25N 51°56' E 003°37'0 0.2
2017-Sep-21 23:58N 51°56' E 003°37'0 0.1
2017-Sep-21 23:25N 51°56' E 003°37'0 0.0
2017-Sep-21 22:58N 51°56' E 003°37'0 0.0
2017-Sep-21 22:28N 51°56' E 003°37'0 0.0
2017-Sep-21 21:58N 51°56' E 003°37'0 0.0
2017-Sep-21 21:28N 51°56' E 003°37'0 0.0
2017-Sep-21 20:58N 51°56' E 003°37'0 0.0
2017-Sep-21 20:28N 51°56' E 003°37'0 0.2
2017-Sep-21 19:58N 51°56' E 003°37'0 0.3
2017-Sep-21 19:28N 51°56' E 003°37'0 0.1
2017-Sep-21 18:58N 51°56' E 003°37'0 0.1
2017-Sep-21 18:28N 51°56' E 003°37'0 0.1
2017-Sep-21 17:58N 51°56' E 003°37'0 0.0
2017-Sep-21 17:28N 51°56' E 003°37'0 0.0
2017-Sep-21 16:58N 51°56' E 003°37'0 0.1
2017-Sep-21 16:19N 51°56' E 003°37'0 1.4
2017-Sep-21 16:00N 51°56' E 003°37'3614.5
2017-Sep-21 13:30N 51°46' E 002°40'1116.9
2017-Sep-21 12:51N 51°38' E 002°29'616.9
2017-Sep-21 12:30N 51°34' E 002°22'816.4
2017-Sep-21 12:00N 51°28' E 002°13'816.0
2017-Sep-21 11:31N 51°21' E 002°07'815.3
2017-Sep-21 11:00N 51°13' E 002°03'815.7
2017-Sep-21 10:30N 51°10' E 001°52'714.1
2017-Sep-21 10:00N 51°05' E 001°44'611.7
2017-Sep-21 09:30N 51°01' E 001°38'510.8
2017-Sep-21 09:01N 50°57' E 001°32'510.0
2017-Sep-21 08:31N 50°53' E 001°27'510.0
2017-Sep-21 07:58N 50°48' E 001°24'610.5
2017-Sep-21 07:25N 50°43' E 001°20'911.1
2017-Sep-21 06:35N 50°36' E 001°09'211.3
2017-Sep-21 06:26N 50°35' E 001°07'611.4
2017-Sep-21 05:53N 50°31' E 000°59'411.2
2017-Sep-21 05:30N 50°30' E 000°53'611.2
2017-Sep-21 04:58N 50°28' E 000°44'511.1
2017-Sep-21 04:29N 50°26' E 000°36'511.1
2017-Sep-21 04:00N 50°24' E 000°28'511.1
2017-Sep-21 03:30N 50°23' E 000°20'611.1
2017-Sep-21 03:00N 50°21' E 000°12'611.2
2017-Sep-21 02:31N 50°20' E 000°03'611.4
2017-Sep-21 02:01N 50°20' W 000°06'611.5
2017-Sep-21 01:30N 50°21' W 000°15'611.7
2017-Sep-21 01:01N 50°23' W 000°23'611.8
2017-Sep-21 00:29N 50°27' W 000°31'612.5
2017-Sep-21 00:00N 50°30' W 000°38'612.2
2017-Sep-20 23:31N 50°35' W 000°45'612.4
2017-Sep-20 23:01N 50°39' W 000°53'5 9.7
2017-Sep-20 22:31N 50°42' W 000°58'714.3
2017-Sep-20 22:00N 50°46' W 001°08'713.9
2017-Sep-20 21:30N 50°47' W 001°19'4 7.2
2017-Sep-20 21:00N 50°51' W 001°20'3 6.8
2017-Sep-20 20:30N 50°53' W 001°24'2 4.3
2017-Sep-20 20:01N 50°54' W 001°26'1 0.2
2017-Sep-20 16:22N 50°54' W 001°27'0 0.0
2017-Sep-20 13:49N 50°54' W 001°27'0 0.0
2017-Sep-20 13:01N 50°54' W 001°27'0 0.1
2017-Sep-20 12:55N 50°54' W 001°27'0 0.0
2017-Sep-20 12:28N 50°54' W 001°27'0 0.0
2017-Sep-20 11:31N 50°54' W 001°27'0 0.1
2017-Sep-20 11:28N 50°54' W 001°27'0 0.0
2017-Sep-20 10:58N 50°54' W 001°27'0 0.0
2017-Sep-20 10:22N 50°54' W 001°27'0 0.0
2017-Sep-20 07:46N 50°54' W 001°27'0 0.0
2017-Sep-20 07:19N 50°54' W 001°27'0 0.0
2017-Sep-20 06:52N 50°54' W 001°27'0 0.0
2017-Sep-20 04:40N 50°54' W 001°27'0 0.1
2017-Sep-20 04:24N 50°54' W 001°27'0 0.8
2017-Sep-20 03:58N 50°54' W 001°27'2 3.5
2017-Sep-20 03:30N 50°54' W 001°25'4 7.5
2017-Sep-20 03:01N 50°51' W 001°20'3 6.9
2017-Sep-20 02:31N 50°48' W 001°18'4 8.8
2017-Sep-20 02:01N 50°46' W 001°12'815.4
2017-Sep-20 01:30N 50°43' W 001°01'5 9.9
2017-Sep-20 01:00N 50°39' W 000°57'3 6.3
2017-Sep-20 00:30N 50°36' W 000°58'3 6.0
2017-Sep-20 00:00N 50°33' W 000°58'612.6
2017-Sep-19 23:30N 50°27' W 000°58'1013.4
2017-Sep-19 22:44N 50°16' W 000°58'313.9
2017-Sep-19 22:30N 50°13' W 000°58'1513.5
2017-Sep-19 21:26N 50°06' W 001°18'715.1
2017-Sep-19 20:58N 50°04' W 001°29'715.6
2017-Sep-19 20:30N 50°02' W 001°40'816.3
2017-Sep-19 20:00N 50°01' W 001°52'816.5
2017-Sep-19 19:30N 49°59' W 002°05'916.6
2017-Sep-19 18:58N 49°57' W 002°18'816.1
2017-Sep-19 18:29N 49°55' W 002°30'916.1
2017-Sep-19 17:55N 49°52' W 002°43'716.1
2017-Sep-19 17:30N 49°50' W 002°53'815.8
2017-Sep-19 17:00N 49°48' W 003°05'816.3
2017-Sep-19 16:30N 49°45' W 003°17'816.2
2017-Sep-19 16:00N 49°44' W 003°29'816.7
2017-Sep-19 15:30N 49°42' W 003°42'816.6
2017-Sep-19 15:00N 49°40' W 003°54'1116.4
2017-Sep-19 14:20N 49°37' W 004°11'616.1
2017-Sep-19 14:00N 49°36' W 004°19'10712.7
2017-Sep-19 05:36N 49°26' W 007°03'213.6
2017-Sep-19 05:27N 49°27' W 007°06'613.5
2017-Sep-19 05:01N 49°27' W 007°15'713.7
2017-Sep-19 04:31N 49°28' W 007°26'8513.3
2017-Sep-18 22:04N 49°36' W 009°37'  

Dump ship's entire track history